sensor_id;sensor_type;location;lat;lon;timestamp;pressure;altitude;pressure_sealevel;temperature;humidity
69214;BME280;56325;47.030;18.518;2023-01-29T00:01:14;101267.06;;;1.08;81.68
69214;BME280;56325;47.030;18.518;2023-01-29T00:03:49;101262.44;;;1.08;81.87
69214;BME280;56325;47.030;18.518;2023-01-29T00:06:25;101268.91;;;1.00;81.73
69214;BME280;56325;47.030;18.518;2023-01-29T00:09:00;101264.16;;;0.90;81.90
69214;BME280;56325;47.030;18.518;2023-01-29T00:11:34;101261.91;;;0.95;81.93
69214;BME280;56325;47.030;18.518;2023-01-29T00:14:08;101261.84;;;0.92;81.80
69214;BME280;56325;47.030;18.518;2023-01-29T00:16:42;101259.56;;;0.94;81.92
69214;BME280;56325;47.030;18.518;2023-01-29T00:19:17;101264.91;;;0.90;82.13
69214;BME280;56325;47.030;18.518;2023-01-29T00:21:53;101263.78;;;0.91;83.02
69214;BME280;56325;47.030;18.518;2023-01-29T00:24:28;101261.53;;;0.97;82.02
69214;BME280;56325;47.030;18.518;2023-01-29T00:27:02;101267.56;;;0.83;82.57
69214;BME280;56325;47.030;18.518;2023-01-29T00:29:38;101255.66;;;0.91;82.22
69214;BME280;56325;47.030;18.518;2023-01-29T00:32:13;101265.78;;;0.98;81.30
69214;BME280;56325;47.030;18.518;2023-01-29T00:34:48;101269.94;;;0.88;81.66
69214;BME280;56325;47.030;18.518;2023-01-29T00:37:23;101271.75;;;0.77;82.54
69214;BME280;56325;47.030;18.518;2023-01-29T00:39:58;101264.22;;;0.97;81.31
69214;BME280;56325;47.030;18.518;2023-01-29T00:42:32;101268.09;;;0.96;81.27
69214;BME280;56325;47.030;18.518;2023-01-29T00:45:24;101271.22;;;0.98;81.35
69214;BME280;56325;47.030;18.518;2023-01-29T00:47:59;101274.19;;;0.86;81.80
69214;BME280;56325;47.030;18.518;2023-01-29T00:50:33;101265.78;;;0.98;81.10
69214;BME280;56325;47.030;18.518;2023-01-29T00:53:09;101275.88;;;1.01;81.23
69214;BME280;56325;47.030;18.518;2023-01-29T00:55:43;101274.19;;;0.86;81.10
69214;BME280;56325;47.030;18.518;2023-01-29T00:58:19;101269.16;;;0.88;81.31
69214;BME280;56325;47.030;18.518;2023-01-29T01:00:54;101277.22;;;0.81;81.87
69214;BME280;56325;47.030;18.518;2023-01-29T01:03:29;101281.75;;;0.73;81.55
69214;BME280;56325;47.030;18.518;2023-01-29T01:06:09;101275.69;;;0.83;81.48
69214;BME280;56325;47.030;18.518;2023-01-29T01:08:45;101278.97;;;0.70;81.64
69214;BME280;56325;47.030;18.518;2023-01-29T01:11:36;101275.22;;;0.78;81.26
69214;BME280;56325;47.030;18.518;2023-01-29T01:14:11;101282.56;;;0.77;81.11
69214;BME280;56325;47.030;18.518;2023-01-29T01:16:47;101282.09;;;0.72;81.74
69214;BME280;56325;47.030;18.518;2023-01-29T01:19:22;101277.84;;;0.71;81.15
69214;BME280;56325;47.030;18.518;2023-01-29T01:21:57;101278.16;;;0.65;81.26
69214;BME280;56325;47.030;18.518;2023-01-29T01:24:32;101281.53;;;0.59;81.00
69214;BME280;56325;47.030;18.518;2023-01-29T01:27:07;101274.63;;;0.61;81.40
69214;BME280;56325;47.030;18.518;2023-01-29T01:29:41;101278.97;;;0.70;81.63
69214;BME280;56325;47.030;18.518;2023-01-29T01:32:16;101279.41;;;0.72;80.46
69214;BME280;56325;47.030;18.518;2023-01-29T01:34:51;101282.09;;;0.72;80.88
69214;BME280;56325;47.030;18.518;2023-01-29T01:37:26;101287.25;;;0.54;81.31
69214;BME280;56325;47.030;18.518;2023-01-29T01:40:02;101288.03;;;0.81;81.48
69214;BME280;56325;47.030;18.518;2023-01-29T01:42:38;101274.91;;;0.83;80.02
69214;BME280;56325;47.030;18.518;2023-01-29T01:45:18;101281.28;;;0.68;81.65
69214;BME280;56325;47.030;18.518;2023-01-29T01:47:58;101281.47;;;0.82;80.29
69214;BME280;56325;47.030;18.518;2023-01-29T01:50:37;101285.06;;;0.63;81.01
69214;BME280;56325;47.030;18.518;2023-01-29T01:53:17;101286.44;;;0.76;81.11
69214;BME280;56325;47.030;18.518;2023-01-29T01:55:58;101287.19;;;0.77;80.43
69214;BME280;56325;47.030;18.518;2023-01-29T01:58:37;101298.56;;;0.59;81.09
69214;BME280;56325;47.030;18.518;2023-01-29T02:01:13;101299.84;;;0.69;81.22
69214;BME280;56325;47.030;18.518;2023-01-29T02:03:53;101299.13;;;0.72;81.00
69214;BME280;56325;47.030;18.518;2023-01-29T02:06:46;101301.00;;;0.68;80.92
69214;BME280;56325;47.030;18.518;2023-01-29T02:09:43;101314.69;;;0.52;80.80
69214;BME280;56325;47.030;18.518;2023-01-29T02:12:22;101309.84;;;0.65;80.90
69214;BME280;56325;47.030;18.518;2023-01-29T02:14:56;101312.88;;;0.60;80.86
69214;BME280;56325;47.030;18.518;2023-01-29T02:17:31;101314.19;;;0.70;81.83
69214;BME280;56325;47.030;18.518;2023-01-29T02:20:11;101300.84;;;0.57;81.49
69214;BME280;56325;47.030;18.518;2023-01-29T02:23:13;101305.44;;;0.80;81.66
69214;BME280;56325;47.030;18.518;2023-01-29T02:26:03;101311.31;;;0.89;80.07
69214;BME280;56325;47.030;18.518;2023-01-29T02:28:46;101306.97;;;0.81;80.11
69214;BME280;56325;47.030;18.518;2023-01-29T02:31:29;101310.53;;;0.85;80.43
69214;BME280;56325;47.030;18.518;2023-01-29T02:34:13;101313.75;;;0.68;80.51
69214;BME280;56325;47.030;18.518;2023-01-29T02:36:56;101314.31;;;0.80;80.60
69214;BME280;56325;47.030;18.518;2023-01-29T02:39:45;101314.38;;;0.84;80.15
69214;BME280;56325;47.030;18.518;2023-01-29T02:42:26;101311.53;;;0.73;80.92
69214;BME280;56325;47.030;18.518;2023-01-29T02:45:10;101315.09;;;0.81;80.44
69214;BME280;56325;47.030;18.518;2023-01-29T02:47:49;101315.19;;;0.88;80.80
69214;BME280;56325;47.030;18.518;2023-01-29T02:50:33;101317.03;;;0.80;80.42
69214;BME280;56325;47.030;18.518;2023-01-29T02:53:14;101328.97;;;0.76;80.86
69214;BME280;56325;47.030;18.518;2023-01-29T02:55:53;101326.16;;;0.69;80.99
69214;BME280;56325;47.030;18.518;2023-01-29T02:58:32;101318.81;;;0.69;80.58
69214;BME280;56325;47.030;18.518;2023-01-29T03:01:15;101328.34;;;0.59;80.64
69214;BME280;56325;47.030;18.518;2023-01-29T03:03:51;101330.72;;;0.64;80.29
69214;BME280;56325;47.030;18.518;2023-01-29T03:06:30;101338.84;;;0.64;80.41
69214;BME280;56325;47.030;18.518;2023-01-29T03:09:10;101338.37;;;0.59;80.28
69214;BME280;56325;47.030;18.518;2023-01-29T03:11:50;101338.00;;;0.60;80.81
69214;BME280;56325;47.030;18.518;2023-01-29T03:14:30;101338.22;;;0.75;80.44
69214;BME280;56325;47.030;18.518;2023-01-29T03:17:36;101337.41;;;0.71;80.52
69214;BME280;56325;47.030;18.518;2023-01-29T03:20:16;101338.13;;;0.68;80.75
69214;BME280;56325;47.030;18.518;2023-01-29T03:22:57;101341.28;;;0.73;80.08
69214;BME280;56325;47.030;18.518;2023-01-29T03:25:34;101343.69;;;0.78;79.82
69214;BME280;56325;47.030;18.518;2023-01-29T03:28:29;101348.91;;;0.64;80.00
69214;BME280;56325;47.030;18.518;2023-01-29T03:31:21;101347.03;;;0.68;80.14
69214;BME280;56325;47.030;18.518;2023-01-29T03:34:17;101352.59;;;0.79;79.64
69214;BME280;56325;47.030;18.518;2023-01-29T03:36:57;101347.12;;;0.75;79.77
69214;BME280;56325;47.030;18.518;2023-01-29T03:39:35;101343.59;;;0.71;80.37
69214;BME280;56325;47.030;18.518;2023-01-29T03:42:17;101350.31;;;0.81;80.34
69214;BME280;56325;47.030;18.518;2023-01-29T03:44:56;101354.47;;;0.75;79.94
69214;BME280;56325;47.030;18.518;2023-01-29T03:47:41;101355.63;;;0.74;79.72
69214;BME280;56325;47.030;18.518;2023-01-29T03:50:30;101360.62;;;0.72;80.30
69214;BME280;56325;47.030;18.518;2023-01-29T03:53:11;101358.63;;;0.69;80.23
69214;BME280;56325;47.030;18.518;2023-01-29T03:55:54;101356.75;;;0.73;80.18
69214;BME280;56325;47.030;18.518;2023-01-29T03:58:35;101354.06;;;0.73;80.07
69214;BME280;56325;47.030;18.518;2023-01-29T04:01:16;101363.75;;;0.51;81.47
69214;BME280;56325;47.030;18.518;2023-01-29T04:03:56;101356.66;;;0.65;80.96
69214;BME280;56325;47.030;18.518;2023-01-29T04:06:36;101357.50;;;0.70;80.88
69214;BME280;56325;47.030;18.518;2023-01-29T04:09:15;101359.94;;;0.78;81.36
69214;BME280;56325;47.030;18.518;2023-01-29T04:12:00;101359.56;;;0.80;80.78
69214;BME280;56325;47.030;18.518;2023-01-29T04:14:37;101349.94;;;0.82;81.02
69214;BME280;56325;47.030;18.518;2023-01-29T04:17:15;101359.16;;;0.78;81.02
69214;BME280;56325;47.030;18.518;2023-01-29T04:19:53;101361.75;;;0.71;81.50
69214;BME280;56325;47.030;18.518;2023-01-29T04:22:31;101358.31;;;0.74;82.03
69214;BME280;56325;47.030;18.518;2023-01-29T04:25:09;101359.78;;;0.68;82.41
69214;BME280;56325;47.030;18.518;2023-01-29T04:27:54;101359.66;;;0.60;82.61
69214;BME280;56325;47.030;18.518;2023-01-29T04:30:40;101362.47;;;0.68;82.59
69214;BME280;56325;47.030;18.518;2023-01-29T04:33:28;101357.38;;;0.62;83.06
69214;BME280;56325;47.030;18.518;2023-01-29T04:36:16;101351.03;;;0.78;82.68
69214;BME280;56325;47.030;18.518;2023-01-29T04:39:04;101350.62;;;0.76;82.62
69214;BME280;56325;47.030;18.518;2023-01-29T04:41:49;101353.62;;;0.71;82.67
69214;BME280;56325;47.030;18.518;2023-01-29T04:44:32;101352.53;;;0.75;82.79
69214;BME280;56325;47.030;18.518;2023-01-29T04:47:16;101347.03;;;0.68;83.07
69214;BME280;56325;47.030;18.518;2023-01-29T04:49:59;101351.19;;;0.62;83.17
69214;BME280;56325;47.030;18.518;2023-01-29T04:52:44;101358.28;;;0.70;83.42
69214;BME280;56325;47.030;18.518;2023-01-29T04:55:28;101349.06;;;0.75;83.52
69214;BME280;56325;47.030;18.518;2023-01-29T04:58:10;101361.44;;;0.76;83.07
69214;BME280;56325;47.030;18.518;2023-01-29T05:00:48;101361.03;;;0.74;83.43
69214;BME280;56325;47.030;18.518;2023-01-29T05:03:25;101358.00;;;0.79;83.14
69214;BME280;56325;47.030;18.518;2023-01-29T05:06:01;101360.19;;;0.70;83.03
69214;BME280;56325;47.030;18.518;2023-01-29T05:08:36;101359.84;;;0.71;83.29
69214;BME280;56325;47.030;18.518;2023-01-29T05:11:15;101361.56;;;0.83;83.26
69214;BME280;56325;47.030;18.518;2023-01-29T05:13:51;101362.28;;;0.80;83.86
69214;BME280;56325;47.030;18.518;2023-01-29T05:16:28;101369.34;;;0.88;83.01
69214;BME280;56325;47.030;18.518;2023-01-29T05:19:14;101358.84;;;0.83;82.97
69214;BME280;56325;47.030;18.518;2023-01-29T05:21:50;101366.75;;;0.69;83.39
69214;BME280;56325;47.030;18.518;2023-01-29T05:24:25;101370.72;;;0.75;83.28
69214;BME280;56325;47.030;18.518;2023-01-29T05:27:02;101377.53;;;0.65;83.74
69214;BME280;56325;47.030;18.518;2023-01-29T05:29:55;101378.72;;;0.68;83.92
69214;BME280;56325;47.030;18.518;2023-01-29T05:32:29;101375.41;;;0.78;83.57
69214;BME280;56325;47.030;18.518;2023-01-29T05:35:04;101375.41;;;0.78;83.52
69214;BME280;56325;47.030;18.518;2023-01-29T05:37:39;101377.31;;;0.77;83.87
69214;BME280;56325;47.030;18.518;2023-01-29T05:40:34;101375.19;;;0.63;84.36
69214;BME280;56325;47.030;18.518;2023-01-29T05:43:15;101374.62;;;0.77;83.28
69214;BME280;56325;47.030;18.518;2023-01-29T05:45:53;101378.84;;;0.75;83.16
69214;BME280;56325;47.030;18.518;2023-01-29T05:48:29;101387.56;;;0.64;83.61
69214;BME280;56325;47.030;18.518;2023-01-29T05:51:04;101374.09;;;0.68;83.49
69214;BME280;56325;47.030;18.518;2023-01-29T05:53:39;101373.78;;;0.73;83.56
69214;BME280;56325;47.030;18.518;2023-01-29T05:56:13;101378.94;;;0.82;83.07
69214;BME280;56325;47.030;18.518;2023-01-29T05:58:49;101383.22;;;0.83;83.13
69214;BME280;56325;47.030;18.518;2023-01-29T06:01:24;101388.88;;;0.74;83.26
69214;BME280;56325;47.030;18.518;2023-01-29T06:03:59;101392.97;;;0.64;83.05
69214;BME280;56325;47.030;18.518;2023-01-29T06:06:33;101367.69;;;3.16;100.00
69214;BME280;56325;47.030;18.518;2023-01-29T06:09:09;101368.72;;;6.03;100.00
69214;BME280;56325;47.030;18.518;2023-01-29T06:11:43;101391.19;;;2.84;96.37
69214;BME280;56325;47.030;18.518;2023-01-29T06:14:19;101387.25;;;1.89;89.37
69214;BME280;56325;47.030;18.518;2023-01-29T06:16:54;101391.50;;;1.53;84.49
69214;BME280;56325;47.030;18.518;2023-01-29T06:19:28;101396.56;;;1.25;83.31
69214;BME280;56325;47.030;18.518;2023-01-29T06:22:03;101396.41;;;0.88;83.72
69214;BME280;56325;47.030;18.518;2023-01-29T06:24:37;101403.09;;;0.94;83.86
69214;BME280;56325;47.030;18.518;2023-01-29T06:27:12;101405.78;;;0.94;85.13
69214;BME280;56325;47.030;18.518;2023-01-29T06:29:48;101415.59;;;0.76;83.89
69214;BME280;56325;47.030;18.518;2023-01-29T06:32:22;101418.84;;;0.85;83.80
69214;BME280;56325;47.030;18.518;2023-01-29T06:34:57;101418.72;;;0.78;83.14
69214;BME280;56325;47.030;18.518;2023-01-29T06:37:31;101421.69;;;0.69;84.22
69214;BME280;56325;47.030;18.518;2023-01-29T06:40:07;101422.03;;;0.68;83.18
69214;BME280;56325;47.030;18.518;2023-01-29T06:42:42;101424.03;;;0.48;83.97
69214;BME280;56325;47.030;18.518;2023-01-29T06:45:19;101434.50;;;0.49;83.98
69214;BME280;56325;47.030;18.518;2023-01-29T06:47:55;101436.19;;;0.57;83.33
69214;BME280;56325;47.030;18.518;2023-01-29T06:50:33;101442.44;;;0.61;83.11
69214;BME280;56325;47.030;18.518;2023-01-29T06:53:08;101448.22;;;0.60;82.45
69214;BME280;56325;47.030;18.518;2023-01-29T06:55:42;101451.19;;;0.32;83.52
69214;BME280;56325;47.030;18.518;2023-01-29T06:58:17;101450.59;;;0.42;83.14
69214;BME280;56325;47.030;18.518;2023-01-29T07:02:52;101448.69;;;0.65;83.32
69214;BME280;56325;47.030;18.518;2023-01-29T07:05:27;101457.94;;;0.64;82.30
69214;BME280;56325;47.030;18.518;2023-01-29T07:08:02;101455.38;;;0.72;82.81
69214;BME280;56325;47.030;18.518;2023-01-29T07:10:37;101462.62;;;0.68;82.71
69214;BME280;56325;47.030;18.518;2023-01-29T07:13:11;101462.34;;;0.73;81.86
69214;BME280;56325;47.030;18.518;2023-01-29T07:15:46;101462.53;;;0.60;83.04
69214;BME280;56325;47.030;18.518;2023-01-29T07:18:22;101453.91;;;0.55;81.92
69214;BME280;56325;47.030;18.518;2023-01-29T07:20:57;101432.97;;;4.35;100.00
69214;BME280;56325;47.030;18.518;2023-01-29T07:23:32;101442.38;;;3.37;100.00
69214;BME280;56325;47.030;18.518;2023-01-29T07:26:06;101443.34;;;1.82;91.52
69214;BME280;56325;47.030;18.518;2023-01-29T07:28:41;101440.66;;;1.52;87.59
69214;BME280;56325;47.030;18.518;2023-01-29T07:31:16;101432.53;;;5.36;100.00
69214;BME280;56325;47.030;18.518;2023-01-29T07:33:52;101428.72;;;4.87;100.00
69214;BME280;56325;47.030;18.518;2023-01-29T07:36:27;101443.63;;;2.91;89.48
69214;BME280;56325;47.030;18.518;2023-01-29T07:39:01;101440.06;;;2.36;81.00
69214;BME280;56325;47.030;18.518;2023-01-29T07:41:38;101446.38;;;1.77;80.75
69214;BME280;56325;47.030;18.518;2023-01-29T07:44:19;101446.00;;;1.45;79.57
69214;BME280;56325;47.030;18.518;2023-01-29T07:46:53;101443.19;;;1.38;81.39
69214;BME280;56325;47.030;18.518;2023-01-29T07:49:29;101440.87;;;1.40;81.37
69214;BME280;56325;47.030;18.518;2023-01-29T07:52:04;101438.19;;;1.40;80.81
69214;BME280;56325;47.030;18.518;2023-01-29T07:54:38;101436.06;;;1.26;78.44
69214;BME280;56325;47.030;18.518;2023-01-29T07:57:13;101440.59;;;1.18;79.26
69214;BME280;56325;47.030;18.518;2023-01-29T07:59:48;101422.25;;;1.08;78.37
69214;BME280;56325;47.030;18.518;2023-01-29T08:02:23;101424.34;;;1.18;77.91
69214;BME280;56325;47.030;18.518;2023-01-29T08:04:59;101427.00;;;1.15;78.14
69214;BME280;56325;47.030;18.518;2023-01-29T08:07:33;101436.00;;;1.22;77.42
69214;BME280;56325;47.030;18.518;2023-01-29T08:10:09;101422.25;;;1.08;77.75
69214;BME280;56325;47.030;18.518;2023-01-29T08:12:53;101427.78;;;1.15;77.61
69214;BME280;56325;47.030;18.518;2023-01-29T08:15:28;101432.16;;;1.23;77.77
69214;BME280;56325;47.030;18.518;2023-01-29T08:18:03;101437.03;;;1.14;77.63
69214;BME280;56325;47.030;18.518;2023-01-29T08:20:39;101433.28;;;1.22;76.80
69214;BME280;56325;47.030;18.518;2023-01-29T08:23:14;101434.63;;;1.36;76.49
69214;BME280;56325;47.030;18.518;2023-01-29T08:25:49;101436.31;;;1.17;75.69
69214;BME280;56325;47.030;18.518;2023-01-29T08:28:23;101439.97;;;1.02;75.62
69214;BME280;56325;47.030;18.518;2023-01-29T08:30:58;101452.34;;;1.03;75.80
69214;BME280;56325;47.030;18.518;2023-01-29T08:33:32;101451.16;;;1.01;76.25
69214;BME280;56325;47.030;18.518;2023-01-29T08:36:13;101452.12;;;0.89;76.08
69214;BME280;56325;47.030;18.518;2023-01-29T08:38:47;101453.69;;;0.90;75.93
69214;BME280;56325;47.030;18.518;2023-01-29T08:41:22;101452.72;;;1.02;76.16
69214;BME280;56325;47.030;18.518;2023-01-29T08:43:56;101458.72;;;1.14;76.27
69214;BME280;56325;47.030;18.518;2023-01-29T08:46:32;101461.63;;;0.76;76.62
69214;BME280;56325;47.030;18.518;2023-01-29T08:49:08;101459.66;;;0.99;75.98
69214;BME280;56325;47.030;18.518;2023-01-29T08:51:44;101457.00;;;1.03;76.61
69214;BME280;56325;47.030;18.518;2023-01-29T08:54:18;101457.34;;;1.54;82.90
69214;BME280;56325;47.030;18.518;2023-01-29T08:56:53;101445.78;;;4.13;100.00
69214;BME280;56325;47.030;18.518;2023-01-29T08:59:28;101471.47;;;2.00;75.08
69214;BME280;56325;47.030;18.518;2023-01-29T09:02:03;101471.37;;;1.33;75.05
69214;BME280;56325;47.030;18.518;2023-01-29T09:04:37;101475.38;;;1.16;76.69
69214;BME280;56325;47.030;18.518;2023-01-29T09:07:13;101483.94;;;1.18;75.41
69214;BME280;56325;47.030;18.518;2023-01-29T09:09:48;101491.22;;;1.14;75.32
69214;BME280;56325;47.030;18.518;2023-01-29T09:12:22;101492.00;;;1.15;74.57
69214;BME280;56325;47.030;18.518;2023-01-29T09:14:57;101490.22;;;0.99;74.64
69214;BME280;56325;47.030;18.518;2023-01-29T09:17:32;101482.34;;;0.91;75.14
69214;BME280;56325;47.030;18.518;2023-01-29T09:20:08;101483.75;;;0.81;75.33
69214;BME280;56325;47.030;18.518;2023-01-29T09:22:45;101490.78;;;0.86;73.61
69214;BME280;56325;47.030;18.518;2023-01-29T09:25:22;101494.94;;;0.80;74.66
69214;BME280;56325;47.030;18.518;2023-01-29T09:27:56;101499.16;;;0.77;74.00
69214;BME280;56325;47.030;18.518;2023-01-29T09:30:31;101497.41;;;0.65;73.55
69214;BME280;56325;47.030;18.518;2023-01-29T09:33:06;101502.62;;;0.55;74.14
69214;BME280;56325;47.030;18.518;2023-01-29T09:35:41;101509.06;;;0.47;73.77
69214;BME280;56325;47.030;18.518;2023-01-29T09:38:19;101503.06;;;0.57;74.39
69214;BME280;56325;47.030;18.518;2023-01-29T09:40:59;101505.53;;;0.65;74.46
69214;BME280;56325;47.030;18.518;2023-01-29T09:43:43;101514.31;;;0.59;74.82
69214;BME280;56325;47.030;18.518;2023-01-29T09:46:21;101518.81;;;0.51;73.68
69214;BME280;56325;47.030;18.518;2023-01-29T09:49:00;101519.53;;;0.48;73.42
69214;BME280;56325;47.030;18.518;2023-01-29T09:51:39;101513.47;;;0.55;73.42
69214;BME280;56325;47.030;18.518;2023-01-29T09:54:22;101520.88;;;0.58;73.17
69214;BME280;56325;47.030;18.518;2023-01-29T09:56:57;101499.22;;;0.58;73.47
69214;BME280;56325;47.030;18.518;2023-01-29T09:59:32;101522.59;;;0.47;73.45
69214;BME280;56325;47.030;18.518;2023-01-29T10:02:09;101517.59;;;0.49;73.14
69214;BME280;56325;47.030;18.518;2023-01-29T10:08:21;101507.19;;;0.51;72.52
69214;BME280;56325;47.030;18.518;2023-01-29T10:11:07;101514.81;;;0.45;72.90
69214;BME280;56325;47.030;18.518;2023-01-29T10:13:53;101507.84;;;0.44;72.82
69214;BME280;56325;47.030;18.518;2023-01-29T10:16:41;101510.25;;;0.49;72.80
69214;BME280;56325;47.030;18.518;2023-01-29T10:19:39;101518.66;;;0.63;72.70
69214;BME280;56325;47.030;18.518;2023-01-29T10:22:44;101503.59;;;0.66;73.45
69214;BME280;56325;47.030;18.518;2023-01-29T10:25:22;101510.72;;;0.74;73.06
69214;BME280;56325;47.030;18.518;2023-01-29T10:27:59;101505.81;;;0.60;71.73
69214;BME280;56325;47.030;18.518;2023-01-29T10:30:38;101500.28;;;0.53;71.05
69214;BME280;56325;47.030;18.518;2023-01-29T10:33:18;101503.53;;;0.62;71.26
69214;BME280;56325;47.030;18.518;2023-01-29T10:35:59;101491.88;;;0.81;71.69
69214;BME280;56325;47.030;18.518;2023-01-29T10:38:42;101494.69;;;0.88;71.58
69214;BME280;56325;47.030;18.518;2023-01-29T10:41:24;101494.50;;;1.01;68.05
69214;BME280;56325;47.030;18.518;2023-01-29T10:44:13;101505.50;;;1.11;68.59
69214;BME280;56325;47.030;18.518;2023-01-29T10:47:04;101504.06;;;1.44;70.28
69214;BME280;56325;47.030;18.518;2023-01-29T10:49:56;101487.06;;;1.47;68.98
69214;BME280;56325;47.030;18.518;2023-01-29T10:52:43;101498.53;;;1.37;69.02
69214;BME280;56325;47.030;18.518;2023-01-29T10:55:32;101496.12;;;1.31;69.97
69214;BME280;56325;47.030;18.518;2023-01-29T10:58:19;101481.91;;;1.38;68.62
69214;BME280;56325;47.030;18.518;2023-01-29T11:00:59;101481.53;;;1.40;68.09
69214;BME280;56325;47.030;18.518;2023-01-29T11:03:34;101478.41;;;1.38;67.83
69214;BME280;56325;47.030;18.518;2023-01-29T11:06:13;101492.69;;;1.35;68.84
69214;BME280;56325;47.030;18.518;2023-01-29T11:08:53;101484.50;;;1.57;69.25
69214;BME280;56325;47.030;18.518;2023-01-29T11:11:33;101480.81;;;1.43;68.38
69214;BME280;56325;47.030;18.518;2023-01-29T11:14:12;101463.91;;;1.53;67.42
69214;BME280;56325;47.030;18.518;2023-01-29T11:16:50;101465.28;;;1.40;68.16
69214;BME280;56325;47.030;18.518;2023-01-29T11:19:36;101467.03;;;1.55;68.20
69214;BME280;56325;47.030;18.518;2023-01-29T11:22:13;101461.94;;;1.50;67.44
69214;BME280;56325;47.030;18.518;2023-01-29T11:25:07;101458.88;;;1.51;68.08
69214;BME280;56325;47.030;18.518;2023-01-29T11:27:44;101447.56;;;1.46;68.15
69214;BME280;56325;47.030;18.518;2023-01-29T11:30:23;101447.41;;;1.35;67.46
69214;BME280;56325;47.030;18.518;2023-01-29T11:33:11;101452.97;;;1.46;66.73
69214;BME280;56325;47.030;18.518;2023-01-29T11:35:51;101451.63;;;1.33;67.65
69214;BME280;56325;47.030;18.518;2023-01-29T11:38:27;101444.19;;;1.26;66.92
69214;BME280;56325;47.030;18.518;2023-01-29T11:41:05;101444.59;;;1.28;67.10
69214;BME280;56325;47.030;18.518;2023-01-29T11:43:40;101442.00;;;1.35;67.31
69214;BME280;56325;47.030;18.518;2023-01-29T11:46:15;101417.44;;;2.21;87.08
69214;BME280;56325;47.030;18.518;2023-01-29T11:48:51;101427.34;;;2.95;76.84
69214;BME280;56325;47.030;18.518;2023-01-29T11:51:39;101415.12;;;2.23;67.30
69214;BME280;56325;47.030;18.518;2023-01-29T11:54:16;101413.22;;;1.90;66.47
69214;BME280;56325;47.030;18.518;2023-01-29T11:56:52;101411.44;;;1.68;66.95
69214;BME280;56325;47.030;18.518;2023-01-29T11:59:39;101413.00;;;1.39;68.30
69214;BME280;56325;47.030;18.518;2023-01-29T12:02:21;101412.28;;;1.42;67.29
69214;BME280;56325;47.030;18.518;2023-01-29T12:05:03;101409.66;;;1.49;67.04
69214;BME280;56325;47.030;18.518;2023-01-29T12:07:40;101399.22;;;1.21;66.83
69214;BME280;56325;47.030;18.518;2023-01-29T12:10:31;101403.22;;;1.31;67.52
69214;BME280;56325;47.030;18.518;2023-01-29T12:13:20;101390.13;;;1.37;67.06
69214;BME280;56325;47.030;18.518;2023-01-29T12:16:12;101391.31;;;1.69;66.01
69214;BME280;56325;47.030;18.518;2023-01-29T12:18:53;101381.22;;;1.66;65.75
69214;BME280;56325;47.030;18.518;2023-01-29T12:21:33;101379.16;;;1.56;67.45
69214;BME280;56325;47.030;18.518;2023-01-29T12:24:19;101387.28;;;1.56;66.90
69214;BME280;56325;47.030;18.518;2023-01-29T12:27:05;101375.69;;;1.59;66.78
69214;BME280;56325;47.030;18.518;2023-01-29T12:29:45;101370.00;;;2.08;67.34
69214;BME280;56325;47.030;18.518;2023-01-29T12:32:29;101362.56;;;4.16;91.35
69214;BME280;56325;47.030;18.518;2023-01-29T12:35:13;101369.84;;;2.86;66.14
69214;BME280;56325;47.030;18.518;2023-01-29T12:37:58;101369.25;;;2.11;65.95
69214;BME280;56325;47.030;18.518;2023-01-29T12:40:39;101366.78;;;1.95;66.03
69214;BME280;56325;47.030;18.518;2023-01-29T12:43:17;101370.81;;;1.72;66.80
69214;BME280;56325;47.030;18.518;2023-01-29T12:45:53;101375.09;;;1.73;67.39
69214;BME280;56325;47.030;18.518;2023-01-29T12:48:32;101378.00;;;1.57;67.56
69214;BME280;56325;47.030;18.518;2023-01-29T12:51:09;101372.16;;;1.55;67.28
69214;BME280;56325;47.030;18.518;2023-01-29T12:53:51;101368.81;;;1.65;67.52
69214;BME280;56325;47.030;18.518;2023-01-29T12:56:30;101354.25;;;1.47;66.83
69214;BME280;56325;47.030;18.518;2023-01-29T12:59:14;101359.69;;;3.52;85.58
69214;BME280;56325;47.030;18.518;2023-01-29T13:01:53;101355.53;;;2.38;65.34
69214;BME280;56325;47.030;18.518;2023-01-29T13:04:35;101355.94;;;1.95;67.43
69214;BME280;56325;47.030;18.518;2023-01-29T13:07:14;101357.12;;;1.98;66.64
69214;BME280;56325;47.030;18.518;2023-01-29T13:09:56;101352.94;;;1.67;67.60
69214;BME280;56325;47.030;18.518;2023-01-29T13:12:35;101354.41;;;1.61;66.65
69214;BME280;56325;47.030;18.518;2023-01-29T13:15:19;101345.72;;;1.45;67.20
69214;BME280;56325;47.030;18.518;2023-01-29T13:18:00;101346.94;;;1.51;66.99
69214;BME280;56325;47.030;18.518;2023-01-29T13:20:39;101336.59;;;1.60;67.80
69214;BME280;56325;47.030;18.518;2023-01-29T13:23:17;101332.47;;;1.73;67.83
69214;BME280;56325;47.030;18.518;2023-01-29T13:25:56;101337.81;;;1.66;67.40
69214;BME280;56325;47.030;18.518;2023-01-29T13:28:32;101325.09;;;1.70;67.98
69214;BME280;56325;47.030;18.518;2023-01-29T13:31:12;101323.69;;;1.50;66.78
69214;BME280;56325;47.030;18.518;2023-01-29T13:33:51;101314.13;;;1.59;68.10
69214;BME280;56325;47.030;18.518;2023-01-29T13:36:28;101315.53;;;1.87;67.11
69214;BME280;56325;47.030;18.518;2023-01-29T13:39:05;101307.44;;;2.35;66.63
69214;BME280;56325;47.030;18.518;2023-01-29T13:41:42;101294.09;;;2.74;67.06
69214;BME280;56325;47.030;18.518;2023-01-29T13:44:21;101303.12;;;2.92;64.62
69214;BME280;56325;47.030;18.518;2023-01-29T13:46:59;101290.75;;;3.02;64.02
69214;BME280;56325;47.030;18.518;2023-01-29T13:49:36;101291.53;;;3.02;64.57
69214;BME280;56325;47.030;18.518;2023-01-29T13:52:25;101290.41;;;3.07;64.97
69214;BME280;56325;47.030;18.518;2023-01-29T13:55:04;101285.31;;;3.02;63.93
69214;BME280;56325;47.030;18.518;2023-01-29T13:57:52;101284.91;;;2.96;63.13